sensor_id;sensor_type;location;lat;lon;timestamp;P1;durP1;ratioP1;P2;durP2;ratioP2
5813;SDS011;2933;52.302;8.134;2023-12-04T00:03:22;25.60;;;10.07;;
5813;SDS011;2933;52.302;8.134;2023-12-04T00:08:25;27.83;;;10.27;;
5813;SDS011;2933;52.302;8.134;2023-12-04T00:13:27;34.33;;;12.40;;
5813;SDS011;2933;52.302;8.134;2023-12-04T00:18:28;27.77;;;11.27;;
5813;SDS011;2933;52.302;8.134;2023-12-04T00:23:32;23.17;;;9.90;;
5813;SDS011;2933;52.302;8.134;2023-12-04T00:28:35;28.40;;;10.57;;
5813;SDS011;2933;52.302;8.134;2023-12-04T00:33:37;25.53;;;10.90;;
5813;SDS011;2933;52.302;8.134;2023-12-04T00:38:40;30.00;;;10.60;;
5813;SDS011;2933;52.302;8.134;2023-12-04T00:43:42;22.00;;;10.20;;
5813;SDS011;2933;52.302;8.134;2023-12-04T00:48:44;26.23;;;10.67;;
5813;SDS011;2933;52.302;8.134;2023-12-04T00:53:47;25.20;;;10.63;;
5813;SDS011;2933;52.302;8.134;2023-12-04T00:58:49;26.80;;;9.90;;
5813;SDS011;2933;52.302;8.134;2023-12-04T01:03:50;25.43;;;10.03;;
5813;SDS011;2933;52.302;8.134;2023-12-04T01:08:53;25.03;;;8.87;;
5813;SDS011;2933;52.302;8.134;2023-12-04T01:13:55;27.13;;;9.80;;
5813;SDS011;2933;52.302;8.134;2023-12-04T01:18:57;20.03;;;8.00;;
5813;SDS011;2933;52.302;8.134;2023-12-04T01:24:00;27.20;;;9.43;;
5813;SDS011;2933;52.302;8.134;2023-12-04T01:29:02;22.13;;;9.00;;
5813;SDS011;2933;52.302;8.134;2023-12-04T01:34:03;28.67;;;10.77;;
5813;SDS011;2933;52.302;8.134;2023-12-04T01:39:06;35.40;;;11.80;;
5813;SDS011;2933;52.302;8.134;2023-12-04T01:44:08;21.40;;;9.53;;
5813;SDS011;2933;52.302;8.134;2023-12-04T01:49:10;28.27;;;8.67;;
5813;SDS011;2933;52.302;8.134;2023-12-04T01:54:13;20.77;;;8.80;;
5813;SDS011;2933;52.302;8.134;2023-12-04T01:59:15;19.50;;;8.80;;
5813;SDS011;2933;52.302;8.134;2023-12-04T02:04:17;16.30;;;8.03;;
5813;SDS011;2933;52.302;8.134;2023-12-04T02:09:20;22.73;;;8.50;;
5813;SDS011;2933;52.302;8.134;2023-12-04T02:14:22;17.90;;;8.67;;
5813;SDS011;2933;52.302;8.134;2023-12-04T02:19:24;19.60;;;8.10;;
5813;SDS011;2933;52.302;8.134;2023-12-04T02:24:27;18.23;;;7.90;;
5813;SDS011;2933;52.302;8.134;2023-12-04T02:29:32;25.87;;;8.87;;
5813;SDS011;2933;52.302;8.134;2023-12-04T02:34:39;22.00;;;8.73;;
5813;SDS011;2933;52.302;8.134;2023-12-04T02:39:44;22.27;;;8.80;;
5813;SDS011;2933;52.302;8.134;2023-12-04T02:44:46;20.17;;;8.67;;
5813;SDS011;2933;52.302;8.134;2023-12-04T02:49:48;21.63;;;7.90;;
5813;SDS011;2933;52.302;8.134;2023-12-04T02:54:51;23.20;;;9.10;;
5813;SDS011;2933;52.302;8.134;2023-12-04T02:59:53;24.10;;;9.37;;
5813;SDS011;2933;52.302;8.134;2023-12-04T03:04:55;22.03;;;9.10;;
5813;SDS011;2933;52.302;8.134;2023-12-04T03:09:58;15.17;;;8.40;;
5813;SDS011;2933;52.302;8.134;2023-12-04T03:14:59;17.50;;;8.73;;
5813;SDS011;2933;52.302;8.134;2023-12-04T03:20:01;21.47;;;8.83;;
5813;SDS011;2933;52.302;8.134;2023-12-04T03:25:06;15.93;;;8.90;;
5813;SDS011;2933;52.302;8.134;2023-12-04T03:30:09;17.60;;;8.60;;
5813;SDS011;2933;52.302;8.134;2023-12-04T03:35:11;17.97;;;9.03;;
5813;SDS011;2933;52.302;8.134;2023-12-04T03:40:14;22.53;;;8.67;;
5813;SDS011;2933;52.302;8.134;2023-12-04T03:45:16;19.07;;;8.57;;
5813;SDS011;2933;52.302;8.134;2023-12-04T03:50:17;19.00;;;8.20;;
5813;SDS011;2933;52.302;8.134;2023-12-04T03:55:20;18.17;;;8.07;;
5813;SDS011;2933;52.302;8.134;2023-12-04T04:00:22;16.00;;;7.27;;
5813;SDS011;2933;52.302;8.134;2023-12-04T04:05:24;17.07;;;8.53;;
5813;SDS011;2933;52.302;8.134;2023-12-04T04:10:27;18.37;;;7.97;;
5813;SDS011;2933;52.302;8.134;2023-12-04T04:15:28;22.40;;;9.60;;
5813;SDS011;2933;52.302;8.134;2023-12-04T04:20:30;22.40;;;9.53;;
5813;SDS011;2933;52.302;8.134;2023-12-04T04:25:33;17.00;;;8.43;;
5813;SDS011;2933;52.302;8.134;2023-12-04T04:30:34;18.80;;;8.50;;
5813;SDS011;2933;52.302;8.134;2023-12-04T04:35:36;20.67;;;8.63;;
5813;SDS011;2933;52.302;8.134;2023-12-04T04:40:39;20.53;;;8.83;;
5813;SDS011;2933;52.302;8.134;2023-12-04T04:45:43;18.17;;;7.70;;
5813;SDS011;2933;52.302;8.134;2023-12-04T04:50:45;16.90;;;8.97;;
5813;SDS011;2933;52.302;8.134;2023-12-04T04:55:48;15.27;;;7.80;;
5813;SDS011;2933;52.302;8.134;2023-12-04T05:00:49;20.00;;;8.10;;
5813;SDS011;2933;52.302;8.134;2023-12-04T05:05:51;20.27;;;8.57;;
5813;SDS011;2933;52.302;8.134;2023-12-04T05:10:54;16.03;;;8.03;;
5813;SDS011;2933;52.302;8.134;2023-12-04T05:15:56;18.87;;;7.70;;
5813;SDS011;2933;52.302;8.134;2023-12-04T05:20:57;20.03;;;8.93;;
5813;SDS011;2933;52.302;8.134;2023-12-04T05:26:00;18.30;;;7.80;;
5813;SDS011;2933;52.302;8.134;2023-12-04T05:31:02;20.27;;;7.77;;
5813;SDS011;2933;52.302;8.134;2023-12-04T05:36:05;19.33;;;8.20;;
5813;SDS011;2933;52.302;8.134;2023-12-04T05:41:08;15.37;;;7.70;;
5813;SDS011;2933;52.302;8.134;2023-12-04T05:46:10;15.80;;;7.30;;
5813;SDS011;2933;52.302;8.134;2023-12-04T05:51:11;23.50;;;9.30;;
5813;SDS011;2933;52.302;8.134;2023-12-04T05:56:16;19.00;;;8.43;;
5813;SDS011;2933;52.302;8.134;2023-12-04T06:01:17;18.57;;;7.70;;
5813;SDS011;2933;52.302;8.134;2023-12-04T06:06:20;19.07;;;7.63;;
5813;SDS011;2933;52.302;8.134;2023-12-04T06:11:23;13.90;;;8.03;;
5813;SDS011;2933;52.302;8.134;2023-12-04T06:16:24;15.87;;;7.77;;
5813;SDS011;2933;52.302;8.134;2023-12-04T06:21:26;12.67;;;7.10;;
5813;SDS011;2933;52.302;8.134;2023-12-04T06:26:29;17.03;;;7.13;;
5813;SDS011;2933;52.302;8.134;2023-12-04T06:31:33;12.00;;;6.10;;
5813;SDS011;2933;52.302;8.134;2023-12-04T06:36:35;10.20;;;6.20;;
5813;SDS011;2933;52.302;8.134;2023-12-04T06:41:42;15.80;;;6.70;;
5813;SDS011;2933;52.302;8.134;2023-12-04T06:46:45;15.90;;;6.80;;
5813;SDS011;2933;52.302;8.134;2023-12-04T06:51:50;12.53;;;6.53;;
5813;SDS011;2933;52.302;8.134;2023-12-04T06:56:53;13.53;;;6.60;;
5813;SDS011;2933;52.302;8.134;2023-12-04T07:01:55;14.90;;;6.93;;
5813;SDS011;2933;52.302;8.134;2023-12-04T07:06:56;18.97;;;6.53;;
5813;SDS011;2933;52.302;8.134;2023-12-04T07:12:06;12.50;;;6.30;;
5813;SDS011;2933;52.302;8.134;2023-12-04T07:17:08;9.47;;;6.10;;
5813;SDS011;2933;52.302;8.134;2023-12-04T07:22:11;15.80;;;6.43;;
5813;SDS011;2933;52.302;8.134;2023-12-04T07:27:14;12.03;;;6.13;;
5813;SDS011;2933;52.302;8.134;2023-12-04T07:32:16;9.17;;;5.97;;
5813;SDS011;2933;52.302;8.134;2023-12-04T07:37:18;8.70;;;5.60;;
5813;SDS011;2933;52.302;8.134;2023-12-04T07:42:21;15.27;;;6.83;;
5813;SDS011;2933;52.302;8.134;2023-12-04T07:47:23;13.83;;;6.60;;
5813;SDS011;2933;52.302;8.134;2023-12-04T07:52:25;15.80;;;6.93;;
5813;SDS011;2933;52.302;8.134;2023-12-04T07:57:29;14.27;;;7.10;;
5813;SDS011;2933;52.302;8.134;2023-12-04T08:02:31;12.47;;;5.97;;
5813;SDS011;2933;52.302;8.134;2023-12-04T08:07:33;12.73;;;6.33;;
5813;SDS011;2933;52.302;8.134;2023-12-04T08:12:36;13.73;;;6.73;;
5813;SDS011;2933;52.302;8.134;2023-12-04T08:17:37;14.97;;;7.20;;
5813;SDS011;2933;52.302;8.134;2023-12-04T08:22:39;12.23;;;6.13;;
5813;SDS011;2933;52.302;8.134;2023-12-04T08:27:42;10.60;;;6.60;;
5813;SDS011;2933;52.302;8.134;2023-12-04T08:32:44;12.13;;;6.67;;
5813;SDS011;2933;52.302;8.134;2023-12-04T08:37:46;14.67;;;6.20;;
5813;SDS011;2933;52.302;8.134;2023-12-04T08:42:49;14.87;;;6.13;;
5813;SDS011;2933;52.302;8.134;2023-12-04T08:47:50;12.30;;;6.30;;
5813;SDS011;2933;52.302;8.134;2023-12-04T08:52:52;13.43;;;6.27;;
5813;SDS011;2933;52.302;8.134;2023-12-04T08:57:55;11.33;;;6.60;;
5813;SDS011;2933;52.302;8.134;2023-12-04T09:02:57;14.00;;;6.40;;
5813;SDS011;2933;52.302;8.134;2023-12-04T09:07:58;13.10;;;6.40;;
5813;SDS011;2933;52.302;8.134;2023-12-04T09:13:01;13.07;;;5.60;;
5813;SDS011;2933;52.302;8.134;2023-12-04T09:18:03;10.67;;;6.40;;
5813;SDS011;2933;52.302;8.134;2023-12-04T09:23:05;13.27;;;6.80;;
5813;SDS011;2933;52.302;8.134;2023-12-04T09:28:08;9.17;;;5.40;;
5813;SDS011;2933;52.302;8.134;2023-12-04T09:33:10;15.20;;;6.20;;
5813;SDS011;2933;52.302;8.134;2023-12-04T09:38:11;13.07;;;6.30;;
5813;SDS011;2933;52.302;8.134;2023-12-04T09:43:14;7.30;;;4.87;;
5813;SDS011;2933;52.302;8.134;2023-12-04T09:48:16;12.10;;;5.97;;
5813;SDS011;2933;52.302;8.134;2023-12-04T09:53:18;12.07;;;6.20;;
5813;SDS011;2933;52.302;8.134;2023-12-04T09:58:22;9.40;;;5.53;;
5813;SDS011;2933;52.302;8.134;2023-12-04T10:03:28;9.50;;;6.50;;
5813;SDS011;2933;52.302;8.134;2023-12-04T10:08:30;12.40;;;5.50;;
5813;SDS011;2933;52.302;8.134;2023-12-04T10:13:33;8.50;;;5.77;;
5813;SDS011;2933;52.302;8.134;2023-12-04T10:18:34;9.00;;;5.80;;
5813;SDS011;2933;52.302;8.134;2023-12-04T10:23:37;9.43;;;5.80;;
5813;SDS011;2933;52.302;8.134;2023-12-04T10:28:42;10.30;;;6.27;;
5813;SDS011;2933;52.302;8.134;2023-12-04T10:34:00;8.40;;;5.93;;
5813;SDS011;2933;52.302;8.134;2023-12-04T10:39:04;16.03;;;6.90;;
5813;SDS011;2933;52.302;8.134;2023-12-04T10:44:07;12.37;;;6.13;;
5813;SDS011;2933;52.302;8.134;2023-12-04T10:49:09;9.60;;;5.40;;
5813;SDS011;2933;52.302;8.134;2023-12-04T10:54:11;12.40;;;5.30;;
5813;SDS011;2933;52.302;8.134;2023-12-04T10:59:15;10.73;;;6.50;;
5813;SDS011;2933;52.302;8.134;2023-12-04T11:04:23;12.03;;;5.77;;
5813;SDS011;2933;52.302;8.134;2023-12-04T11:09:27;10.67;;;5.60;;
5813;SDS011;2933;52.302;8.134;2023-12-04T11:14:34;8.10;;;5.57;;
5813;SDS011;2933;52.302;8.134;2023-12-04T11:19:45;7.80;;;5.53;;
5813;SDS011;2933;52.302;8.134;2023-12-04T11:24:53;6.93;;;5.27;;
5813;SDS011;2933;52.302;8.134;2023-12-04T11:29:58;8.27;;;5.77;;
5813;SDS011;2933;52.302;8.134;2023-12-04T11:35:06;9.43;;;5.27;;
5813;SDS011;2933;52.302;8.134;2023-12-04T11:40:14;12.97;;;5.97;;
5813;SDS011;2933;52.302;8.134;2023-12-04T11:45:21;6.87;;;5.03;;
5813;SDS011;2933;52.302;8.134;2023-12-04T11:50:24;7.60;;;5.20;;
5813;SDS011;2933;52.302;8.134;2023-12-04T11:55:26;10.30;;;6.10;;
5813;SDS011;2933;52.302;8.134;2023-12-04T12:00:29;12.03;;;4.90;;
5813;SDS011;2933;52.302;8.134;2023-12-04T12:05:32;9.47;;;5.30;;
5813;SDS011;2933;52.302;8.134;2023-12-04T12:10:35;7.60;;;5.17;;
5813;SDS011;2933;52.302;8.134;2023-12-04T12:15:38;10.60;;;5.13;;
5813;SDS011;2933;52.302;8.134;2023-12-04T12:20:39;8.30;;;5.10;;
5813;SDS011;2933;52.302;8.134;2023-12-04T12:25:41;8.53;;;5.13;;
5813;SDS011;2933;52.302;8.134;2023-12-04T12:30:45;8.73;;;5.00;;
5813;SDS011;2933;52.302;8.134;2023-12-04T12:35:47;6.27;;;4.47;;
5813;SDS011;2933;52.302;8.134;2023-12-04T12:40:49;9.80;;;4.77;;
5813;SDS011;2933;52.302;8.134;2023-12-04T12:45:53;8.97;;;4.80;;
5813;SDS011;2933;52.302;8.134;2023-12-04T12:50:55;7.23;;;4.17;;
5813;SDS011;2933;52.302;8.134;2023-12-04T12:55:59;11.40;;;5.87;;
5813;SDS011;2933;52.302;8.134;2023-12-04T13:01:03;9.07;;;4.93;;
5813;SDS011;2933;52.302;8.134;2023-12-04T13:06:05;8.40;;;4.57;;
5813;SDS011;2933;52.302;8.134;2023-12-04T13:11:07;7.27;;;4.50;;
5813;SDS011;2933;52.302;8.134;2023-12-04T13:16:10;6.80;;;4.03;;
5813;SDS011;2933;52.302;8.134;2023-12-04T13:21:12;7.73;;;4.67;;
5813;SDS011;2933;52.302;8.134;2023-12-04T13:26:14;6.73;;;4.90;;
5813;SDS011;2933;52.302;8.134;2023-12-04T13:31:17;8.77;;;5.03;;
5813;SDS011;2933;52.302;8.134;2023-12-04T13:36:20;6.73;;;4.60;;
5813;SDS011;2933;52.302;8.134;2023-12-04T13:41:23;7.67;;;4.67;;
5813;SDS011;2933;52.302;8.134;2023-12-04T13:46:44;6.20;;;4.20;;
5813;SDS011;2933;52.302;8.134;2023-12-04T13:51:47;6.57;;;4.00;;
5813;SDS011;2933;52.302;8.134;2023-12-04T13:56:49;5.13;;;3.77;;
5813;SDS011;2933;52.302;8.134;2023-12-04T14:01:55;4.77;;;4.23;;
5813;SDS011;2933;52.302;8.134;2023-12-04T14:07:00;7.27;;;4.20;;
5813;SDS011;2933;52.302;8.134;2023-12-04T14:12:02;4.80;;;4.00;;
5813;SDS011;2933;52.302;8.134;2023-12-04T14:17:05;8.40;;;4.73;;
5813;SDS011;2933;52.302;8.134;2023-12-04T14:22:07;8.83;;;4.67;;
5813;SDS011;2933;52.302;8.134;2023-12-04T14:27:09;5.40;;;3.97;;
5813;SDS011;2933;52.302;8.134;2023-12-04T14:32:12;4.27;;;3.80;;
5813;SDS011;2933;52.302;8.134;2023-12-04T14:37:14;7.70;;;4.63;;
5813;SDS011;2933;52.302;8.134;2023-12-04T14:42:16;7.20;;;4.13;;
5813;SDS011;2933;52.302;8.134;2023-12-04T14:47:19;9.43;;;6.03;;
5813;SDS011;2933;52.302;8.134;2023-12-04T14:52:20;10.77;;;5.87;;
5813;SDS011;2933;52.302;8.134;2023-12-04T14:57:23;8.40;;;5.63;;
5813;SDS011;2933;52.302;8.134;2023-12-04T15:02:43;5.60;;;4.80;;
5813;SDS011;2933;52.302;8.134;2023-12-04T15:08:09;6.47;;;4.43;;
5813;SDS011;2933;52.302;8.134;2023-12-04T15:13:38;5.77;;;4.70;;
5813;SDS011;2933;52.302;8.134;2023-12-04T15:18:55;12.80;;;4.70;;
5813;SDS011;2933;52.302;8.134;2023-12-04T15:24:13;6.10;;;4.43;;
5813;SDS011;2933;52.302;8.134;2023-12-04T15:29:15;7.47;;;4.60;;
5813;SDS011;2933;52.302;8.134;2023-12-04T15:34:22;7.57;;;4.27;;
5813;SDS011;2933;52.302;8.134;2023-12-04T15:39:24;7.37;;;4.33;;
5813;SDS011;2933;52.302;8.134;2023-12-04T15:44:25;6.17;;;4.90;;
5813;SDS011;2933;52.302;8.134;2023-12-04T15:49:28;6.67;;;4.70;;
5813;SDS011;2933;52.302;8.134;2023-12-04T15:54:30;6.50;;;4.93;;
5813;SDS011;2933;52.302;8.134;2023-12-04T15:59:32;5.30;;;4.30;;
5813;SDS011;2933;52.302;8.134;2023-12-04T16:04:35;7.63;;;5.37;;
5813;SDS011;2933;52.302;8.134;2023-12-04T16:09:37;8.97;;;5.20;;
5813;SDS011;2933;52.302;8.134;2023-12-04T16:14:38;7.23;;;4.63;;
5813;SDS011;2933;52.302;8.134;2023-12-04T16:19:41;10.47;;;6.70;;
5813;SDS011;2933;52.302;8.134;2023-12-04T16:24:44;6.30;;;4.70;;
5813;SDS011;2933;52.302;8.134;2023-12-04T16:29:46;11.20;;;5.13;;
5813;SDS011;2933;52.302;8.134;2023-12-04T16:34:49;12.87;;;5.60;;
5813;SDS011;2933;52.302;8.134;2023-12-04T16:39:50;11.23;;;4.80;;
5813;SDS011;2933;52.302;8.134;2023-12-04T16:44:52;8.80;;;5.30;;
5813;SDS011;2933;52.302;8.134;2023-12-04T16:49:56;11.10;;;5.53;;
5813;SDS011;2933;52.302;8.134;2023-12-04T16:54:57;12.20;;;6.03;;
5813;SDS011;2933;52.302;8.134;2023-12-04T16:59:59;8.30;;;5.60;;
5813;SDS011;2933;52.302;8.134;2023-12-04T17:05:02;10.67;;;5.67;;
5813;SDS011;2933;52.302;8.134;2023-12-04T17:10:05;11.23;;;5.70;;
5813;SDS011;2933;52.302;8.134;2023-12-04T17:15:09;6.77;;;4.87;;
5813;SDS011;2933;52.302;8.134;2023-12-04T17:20:13;10.27;;;5.47;;
5813;SDS011;2933;52.302;8.134;2023-12-04T17:25:14;7.30;;;5.43;;
5813;SDS011;2933;52.302;8.134;2023-12-04T17:30:17;6.40;;;5.33;;
5813;SDS011;2933;52.302;8.134;2023-12-04T17:35:20;11.57;;;6.40;;
5813;SDS011;2933;52.302;8.134;2023-12-04T17:40:22;8.53;;;4.60;;
5813;SDS011;2933;52.302;8.134;2023-12-04T17:45:24;10.50;;;5.67;;
5813;SDS011;2933;52.302;8.134;2023-12-04T17:50:33;9.33;;;5.40;;
5813;SDS011;2933;52.302;8.134;2023-12-04T17:55:34;6.50;;;4.23;;
5813;SDS011;2933;52.302;8.134;2023-12-04T18:00:38;8.13;;;4.90;;
5813;SDS011;2933;52.302;8.134;2023-12-04T18:05:43;12.87;;;5.10;;
5813;SDS011;2933;52.302;8.134;2023-12-04T18:10:44;7.70;;;4.40;;
5813;SDS011;2933;52.302;8.134;2023-12-04T18:15:47;9.63;;;5.00;;
5813;SDS011;2933;52.302;8.134;2023-12-04T18:20:50;14.03;;;6.57;;
5813;SDS011;2933;52.302;8.134;2023-12-04T18:25:52;9.73;;;5.20;;
5813;SDS011;2933;52.302;8.134;2023-12-04T18:30:54;6.40;;;4.13;;
5813;SDS011;2933;52.302;8.134;2023-12-04T18:35:58;9.87;;;5.10;;
5813;SDS011;2933;52.302;8.134;2023-12-04T18:41:05;7.57;;;4.43;;
5813;SDS011;2933;52.302;8.134;2023-12-04T18:46:11;11.80;;;5.00;;
5813;SDS011;2933;52.302;8.134;2023-12-04T18:51:15;7.20;;;4.00;;
5813;SDS011;2933;52.302;8.134;2023-12-04T18:56:17;8.00;;;5.57;;
5813;SDS011;2933;52.302;8.134;2023-12-04T19:01:21;6.30;;;4.83;;
5813;SDS011;2933;52.302;8.134;2023-12-04T19:06:24;13.37;;;5.30;;
5813;SDS011;2933;52.302;8.134;2023-12-04T19:11:25;8.27;;;5.23;;
5813;SDS011;2933;52.302;8.134;2023-12-04T19:16:27;7.53;;;4.70;;
5813;SDS011;2933;52.302;8.134;2023-12-04T19:21:30;8.30;;;5.47;;
5813;SDS011;2933;52.302;8.134;2023-12-04T19:26:32;6.97;;;4.73;;
5813;SDS011;2933;52.302;8.134;2023-12-04T19:31:34;6.23;;;4.93;;
5813;SDS011;2933;52.302;8.134;2023-12-04T19:36:37;9.40;;;4.93;;
5813;SDS011;2933;52.302;8.134;2023-12-04T19:41:39;8.33;;;4.90;;
5813;SDS011;2933;52.302;8.134;2023-12-04T19:46:40;10.73;;;5.93;;
5813;SDS011;2933;52.302;8.134;2023-12-04T19:51:43;11.97;;;5.97;;
5813;SDS011;2933;52.302;8.134;2023-12-04T19:56:45;8.00;;;5.30;;
5813;SDS011;2933;52.302;8.134;2023-12-04T20:01:49;11.47;;;5.80;;
5813;SDS011;2933;52.302;8.134;2023-12-04T20:06:52;11.97;;;5.97;;
5813;SDS011;2933;52.302;8.134;2023-12-04T20:11:54;7.50;;;5.00;;
5813;SDS011;2933;52.302;8.134;2023-12-04T20:16:56;7.07;;;5.33;;
5813;SDS011;2933;52.302;8.134;2023-12-04T20:21:59;8.20;;;5.27;;
5813;SDS011;2933;52.302;8.134;2023-12-04T20:27:01;8.00;;;5.60;;
5813;SDS011;2933;52.302;8.134;2023-12-04T20:32:03;6.90;;;5.00;;
5813;SDS011;2933;52.302;8.134;2023-12-04T20:37:07;9.37;;;5.73;;
5813;SDS011;2933;52.302;8.134;2023-12-04T20:42:09;10.80;;;6.07;;
5813;SDS011;2933;52.302;8.134;2023-12-04T20:47:11;8.80;;;5.90;;
5813;SDS011;2933;52.302;8.134;2023-12-04T20:52:14;12.87;;;5.87;;
5813;SDS011;2933;52.302;8.134;2023-12-04T20:57:15;9.80;;;6.27;;
5813;SDS011;2933;52.302;8.134;2023-12-04T21:02:17;7.87;;;5.70;;
5813;SDS011;2933;52.302;8.134;2023-12-04T21:07:20;10.10;;;5.67;;
5813;SDS011;2933;52.302;8.134;2023-12-04T21:12:22;8.67;;;5.30;;
5813;SDS011;2933;52.302;8.134;2023-12-04T21:17:23;13.40;;;5.50;;
5813;SDS011;2933;52.302;8.134;2023-12-04T21:22:26;9.93;;;5.70;;
5813;SDS011;2933;52.302;8.134;2023-12-04T21:27:28;10.50;;;6.10;;
5813;SDS011;2933;52.302;8.134;2023-12-04T21:32:31;11.07;;;5.97;;
5813;SDS011;2933;52.302;8.134;2023-12-04T21:37:34;9.73;;;5.80;;
5813;SDS011;2933;52.302;8.134;2023-12-04T21:42:36;10.00;;;6.00;;
5813;SDS011;2933;52.302;8.134;2023-12-04T21:47:38;10.70;;;5.70;;
5813;SDS011;2933;52.302;8.134;2023-12-04T21:52:41;15.50;;;6.90;;
5813;SDS011;2933;52.302;8.134;2023-12-04T21:57:44;12.30;;;6.40;;
5813;SDS011;2933;52.302;8.134;2023-12-04T22:02:48;12.40;;;6.00;;
5813;SDS011;2933;52.302;8.134;2023-12-04T22:08:08;9.90;;;5.67;;
5813;SDS011;2933;52.302;8.134;2023-12-04T22:13:10;12.93;;;6.20;;
5813;SDS011;2933;52.302;8.134;2023-12-04T22:18:14;13.53;;;6.40;;
5813;SDS011;2933;52.302;8.134;2023-12-04T22:23:18;10.77;;;6.87;;
5813;SDS011;2933;52.302;8.134;2023-12-04T22:28:20;10.73;;;6.20;;
5813;SDS011;2933;52.302;8.134;2023-12-04T22:33:22;15.00;;;6.80;;
5813;SDS011;2933;52.302;8.134;2023-12-04T22:38:26;10.43;;;6.23;;
5813;SDS011;2933;52.302;8.134;2023-12-04T22:43:28;12.50;;;5.90;;
5813;SDS011;2933;52.302;8.134;2023-12-04T22:48:30;12.40;;;6.70;;
5813;SDS011;2933;52.302;8.134;2023-12-04T22:53:37;12.47;;;7.23;;
5813;SDS011;2933;52.302;8.134;2023-12-04T22:58:39;13.87;;;6.20;;
5813;SDS011;2933;52.302;8.134;2023-12-04T23:03:45;11.27;;;6.80;;
5813;SDS011;2933;52.302;8.134;2023-12-04T23:08:49;16.00;;;7.70;;
5813;SDS011;2933;52.302;8.134;2023-12-04T23:13:51;10.67;;;6.90;;
5813;SDS011;2933;52.302;8.134;2023-12-04T23:18:54;12.20;;;6.40;;
5813;SDS011;2933;52.302;8.134;2023-12-04T23:23:58;11.00;;;6.27;;
5813;SDS011;2933;52.302;8.134;2023-12-04T23:29:08;14.73;;;7.20;;
5813;SDS011;2933;52.302;8.134;2023-12-04T23:34:13;16.93;;;6.53;;
5813;SDS011;2933;52.302;8.134;2023-12-04T23:39:16;15.33;;;7.10;;
5813;SDS011;2933;52.302;8.134;2023-12-04T23:44:18;12.33;;;6.43;;
5813;SDS011;2933;52.302;8.134;2023-12-04T23:49:24;9.43;;;5.87;;
5813;SDS011;2933;52.302;8.134;2023-12-04T23:54:29;11.73;;;6.90;;
5813;SDS011;2933;52.302;8.134;2023-12-04T23:59:31;12.90;;;6.40;;
